sensor_id;sensor_type;location;lat;lon;timestamp;P1;durP1;ratioP1;P2;durP2;ratioP2
18280;SDS011;9266;51.132;17.062;2023-12-04T00:00:26;34.80;;;19.27;;
18280;SDS011;9266;51.132;17.062;2023-12-04T00:03:01;34.43;;;17.90;;
18280;SDS011;9266;51.132;17.062;2023-12-04T00:05:30;33.30;;;19.13;;
18280;SDS011;9266;51.132;17.062;2023-12-04T00:08:03;34.83;;;18.87;;
18280;SDS011;9266;51.132;17.062;2023-12-04T00:10:31;33.27;;;18.60;;
18280;SDS011;9266;51.132;17.062;2023-12-04T00:13:02;36.80;;;19.63;;
18280;SDS011;9266;51.132;17.062;2023-12-04T00:15:29;33.27;;;18.73;;
18280;SDS011;9266;51.132;17.062;2023-12-04T00:17:59;37.23;;;20.93;;
18280;SDS011;9266;51.132;17.062;2023-12-04T00:20:27;34.80;;;18.27;;
18280;SDS011;9266;51.132;17.062;2023-12-04T00:22:57;32.60;;;19.50;;
18280;SDS011;9266;51.132;17.062;2023-12-04T00:25:28;35.30;;;18.60;;
18280;SDS011;9266;51.132;17.062;2023-12-04T00:27:57;35.23;;;19.17;;
18280;SDS011;9266;51.132;17.062;2023-12-04T00:30:39;34.73;;;19.27;;
18280;SDS011;9266;51.132;17.062;2023-12-04T00:33:40;29.13;;;18.20;;
18280;SDS011;9266;51.132;17.062;2023-12-04T00:36:21;29.53;;;17.53;;
18280;SDS011;9266;51.132;17.062;2023-12-04T00:38:50;32.70;;;18.60;;
18280;SDS011;9266;51.132;17.062;2023-12-04T00:41:20;31.53;;;18.43;;
18280;SDS011;9266;51.132;17.062;2023-12-04T00:43:50;36.13;;;19.30;;
18280;SDS011;9266;51.132;17.062;2023-12-04T00:46:18;32.33;;;18.33;;
18280;SDS011;9266;51.132;17.062;2023-12-04T00:48:48;34.63;;;18.57;;
18280;SDS011;9266;51.132;17.062;2023-12-04T00:51:19;35.00;;;18.90;;
18280;SDS011;9266;51.132;17.062;2023-12-04T00:53:47;35.80;;;19.73;;
18280;SDS011;9266;51.132;17.062;2023-12-04T00:56:19;36.80;;;20.13;;
18280;SDS011;9266;51.132;17.062;2023-12-04T00:59:04;34.83;;;18.97;;
18280;SDS011;9266;51.132;17.062;2023-12-04T01:01:38;34.27;;;18.67;;
18280;SDS011;9266;51.132;17.062;2023-12-04T01:04:10;31.03;;;17.83;;
18280;SDS011;9266;51.132;17.062;2023-12-04T01:06:48;35.57;;;16.90;;
18280;SDS011;9266;51.132;17.062;2023-12-04T01:09:15;31.53;;;18.83;;
18280;SDS011;9266;51.132;17.062;2023-12-04T01:11:49;34.23;;;18.13;;
18280;SDS011;9266;51.132;17.062;2023-12-04T01:14:21;38.33;;;18.93;;
18280;SDS011;9266;51.132;17.062;2023-12-04T01:16:52;35.67;;;18.03;;
18280;SDS011;9266;51.132;17.062;2023-12-04T01:19:22;31.07;;;18.37;;
18280;SDS011;9266;51.132;17.062;2023-12-04T01:21:53;36.17;;;18.43;;
18280;SDS011;9266;51.132;17.062;2023-12-04T01:24:31;32.40;;;19.17;;
18280;SDS011;9266;51.132;17.062;2023-12-04T01:26:58;36.83;;;18.90;;
18280;SDS011;9266;51.132;17.062;2023-12-04T01:29:36;30.20;;;19.17;;
18280;SDS011;9266;51.132;17.062;2023-12-04T01:32:15;32.93;;;18.40;;
18280;SDS011;9266;51.132;17.062;2023-12-04T01:34:45;35.20;;;19.20;;
18280;SDS011;9266;51.132;17.062;2023-12-04T01:37:21;35.77;;;19.37;;
18280;SDS011;9266;51.132;17.062;2023-12-04T01:39:50;29.17;;;17.20;;
18280;SDS011;9266;51.132;17.062;2023-12-04T01:42:27;31.73;;;18.00;;
18280;SDS011;9266;51.132;17.062;2023-12-04T01:44:57;37.43;;;19.53;;
18280;SDS011;9266;51.132;17.062;2023-12-04T01:47:45;29.67;;;17.87;;
18280;SDS011;9266;51.132;17.062;2023-12-04T01:50:15;33.43;;;18.10;;
18280;SDS011;9266;51.132;17.062;2023-12-04T01:52:56;32.67;;;18.13;;
18280;SDS011;9266;51.132;17.062;2023-12-04T01:55:24;32.00;;;17.50;;
18280;SDS011;9266;51.132;17.062;2023-12-04T01:57:59;34.43;;;18.03;;
18280;SDS011;9266;51.132;17.062;2023-12-04T02:00:29;35.30;;;20.53;;
18280;SDS011;9266;51.132;17.062;2023-12-04T02:02:56;37.73;;;19.80;;
18280;SDS011;9266;51.132;17.062;2023-12-04T02:05:34;31.80;;;18.87;;
18280;SDS011;9266;51.132;17.062;2023-12-04T02:08:11;34.97;;;20.83;;
18280;SDS011;9266;51.132;17.062;2023-12-04T02:10:43;36.23;;;21.33;;
18280;SDS011;9266;51.132;17.062;2023-12-04T02:13:16;37.90;;;21.63;;
18280;SDS011;9266;51.132;17.062;2023-12-04T02:16:00;39.00;;;20.60;;
18280;SDS011;9266;51.132;17.062;2023-12-04T02:18:40;32.27;;;18.40;;
18280;SDS011;9266;51.132;17.062;2023-12-04T02:21:21;39.80;;;20.87;;
18280;SDS011;9266;51.132;17.062;2023-12-04T02:23:54;36.77;;;20.73;;
18280;SDS011;9266;51.132;17.062;2023-12-04T02:26:23;36.80;;;19.93;;
18280;SDS011;9266;51.132;17.062;2023-12-04T02:28:55;36.70;;;20.40;;
18280;SDS011;9266;51.132;17.062;2023-12-04T02:31:25;38.63;;;20.60;;
18280;SDS011;9266;51.132;17.062;2023-12-04T02:34:03;43.30;;;20.57;;
18280;SDS011;9266;51.132;17.062;2023-12-04T02:36:37;41.93;;;21.47;;
18280;SDS011;9266;51.132;17.062;2023-12-04T02:39:09;40.20;;;20.27;;
18280;SDS011;9266;51.132;17.062;2023-12-04T02:41:41;36.63;;;19.43;;
18280;SDS011;9266;51.132;17.062;2023-12-04T02:44:08;37.17;;;20.13;;
18280;SDS011;9266;51.132;17.062;2023-12-04T02:46:42;40.17;;;21.03;;
18280;SDS011;9266;51.132;17.062;2023-12-04T02:49:11;43.10;;;21.67;;
18280;SDS011;9266;51.132;17.062;2023-12-04T02:51:44;47.20;;;23.60;;
18280;SDS011;9266;51.132;17.062;2023-12-04T02:54:13;42.23;;;22.93;;
18280;SDS011;9266;51.132;17.062;2023-12-04T02:56:41;46.97;;;23.40;;
18280;SDS011;9266;51.132;17.062;2023-12-04T02:59:08;43.40;;;23.90;;
18280;SDS011;9266;51.132;17.062;2023-12-04T03:01:36;48.23;;;23.97;;
18280;SDS011;9266;51.132;17.062;2023-12-04T03:04:06;42.93;;;22.70;;
18280;SDS011;9266;51.132;17.062;2023-12-04T03:06:34;43.13;;;22.20;;
18280;SDS011;9266;51.132;17.062;2023-12-04T03:09:03;48.90;;;25.10;;
18280;SDS011;9266;51.132;17.062;2023-12-04T03:11:40;51.03;;;23.83;;
18280;SDS011;9266;51.132;17.062;2023-12-04T03:14:10;48.67;;;23.40;;
18280;SDS011;9266;51.132;17.062;2023-12-04T03:16:39;45.60;;;24.80;;
18280;SDS011;9266;51.132;17.062;2023-12-04T03:19:20;47.97;;;23.83;;
18280;SDS011;9266;51.132;17.062;2023-12-04T03:21:48;43.80;;;22.03;;
18280;SDS011;9266;51.132;17.062;2023-12-04T03:24:18;47.50;;;24.13;;
18280;SDS011;9266;51.132;17.062;2023-12-04T03:26:48;50.90;;;24.17;;
18280;SDS011;9266;51.132;17.062;2023-12-04T03:29:16;51.07;;;24.03;;
18280;SDS011;9266;51.132;17.062;2023-12-04T03:31:48;41.70;;;21.57;;
18280;SDS011;9266;51.132;17.062;2023-12-04T03:34:16;39.77;;;23.10;;
18280;SDS011;9266;51.132;17.062;2023-12-04T03:36:45;47.73;;;23.57;;
18280;SDS011;9266;51.132;17.062;2023-12-04T03:39:11;49.20;;;23.20;;
18280;SDS011;9266;51.132;17.062;2023-12-04T03:41:40;44.10;;;23.17;;
18280;SDS011;9266;51.132;17.062;2023-12-04T03:44:13;51.77;;;25.80;;
18280;SDS011;9266;51.132;17.062;2023-12-04T03:46:43;46.83;;;23.53;;
18280;SDS011;9266;51.132;17.062;2023-12-04T03:49:11;42.10;;;22.60;;
18280;SDS011;9266;51.132;17.062;2023-12-04T03:51:38;46.97;;;23.30;;
18280;SDS011;9266;51.132;17.062;2023-12-04T03:54:09;46.37;;;23.07;;
18280;SDS011;9266;51.132;17.062;2023-12-04T03:56:39;41.70;;;23.87;;
18280;SDS011;9266;51.132;17.062;2023-12-04T03:59:10;42.93;;;24.07;;
18280;SDS011;9266;51.132;17.062;2023-12-04T04:01:38;47.43;;;24.17;;
18280;SDS011;9266;51.132;17.062;2023-12-04T04:04:05;41.87;;;23.53;;
18280;SDS011;9266;51.132;17.062;2023-12-04T04:06:34;42.03;;;22.77;;
18280;SDS011;9266;51.132;17.062;2023-12-04T04:09:05;42.20;;;22.93;;
18280;SDS011;9266;51.132;17.062;2023-12-04T04:11:41;46.47;;;22.33;;
18280;SDS011;9266;51.132;17.062;2023-12-04T04:14:15;46.03;;;21.97;;
18280;SDS011;9266;51.132;17.062;2023-12-04T04:16:51;43.03;;;22.13;;
18280;SDS011;9266;51.132;17.062;2023-12-04T04:19:23;42.93;;;22.23;;
18280;SDS011;9266;51.132;17.062;2023-12-04T04:21:51;44.80;;;22.77;;
18280;SDS011;9266;51.132;17.062;2023-12-04T04:24:22;47.00;;;23.00;;
18280;SDS011;9266;51.132;17.062;2023-12-04T04:26:57;41.57;;;21.87;;
18280;SDS011;9266;51.132;17.062;2023-12-04T04:29:32;39.90;;;21.97;;
18280;SDS011;9266;51.132;17.062;2023-12-04T04:32:01;42.60;;;23.87;;
18280;SDS011;9266;51.132;17.062;2023-12-04T04:34:30;45.83;;;22.80;;
18280;SDS011;9266;51.132;17.062;2023-12-04T04:36:58;45.27;;;22.37;;
18280;SDS011;9266;51.132;17.062;2023-12-04T04:39:25;41.27;;;22.67;;
18280;SDS011;9266;51.132;17.062;2023-12-04T04:42:03;44.20;;;24.83;;
18280;SDS011;9266;51.132;17.062;2023-12-04T04:44:42;42.97;;;23.67;;
18280;SDS011;9266;51.132;17.062;2023-12-04T04:47:27;43.70;;;22.73;;
18280;SDS011;9266;51.132;17.062;2023-12-04T04:50:08;38.90;;;20.60;;
18280;SDS011;9266;51.132;17.062;2023-12-04T04:52:36;39.03;;;22.83;;
18280;SDS011;9266;51.132;17.062;2023-12-04T04:55:08;36.07;;;20.57;;
18280;SDS011;9266;51.132;17.062;2023-12-04T04:57:44;38.70;;;20.87;;
18280;SDS011;9266;51.132;17.062;2023-12-04T05:00:16;39.53;;;22.00;;
18280;SDS011;9266;51.132;17.062;2023-12-04T05:02:56;42.30;;;22.13;;
18280;SDS011;9266;51.132;17.062;2023-12-04T05:05:31;41.73;;;20.30;;
18280;SDS011;9266;51.132;17.062;2023-12-04T05:07:59;38.93;;;22.03;;
18280;SDS011;9266;51.132;17.062;2023-12-04T05:10:28;44.03;;;22.20;;
18280;SDS011;9266;51.132;17.062;2023-12-04T05:13:00;43.43;;;21.40;;
18280;SDS011;9266;51.132;17.062;2023-12-04T05:15:33;43.53;;;23.23;;
18280;SDS011;9266;51.132;17.062;2023-12-04T05:18:02;47.03;;;21.83;;
18280;SDS011;9266;51.132;17.062;2023-12-04T05:20:32;44.23;;;23.43;;
18280;SDS011;9266;51.132;17.062;2023-12-04T05:23:02;51.80;;;25.53;;
18280;SDS011;9266;51.132;17.062;2023-12-04T05:25:34;45.30;;;21.73;;
18280;SDS011;9266;51.132;17.062;2023-12-04T05:28:11;39.63;;;21.23;;
18280;SDS011;9266;51.132;17.062;2023-12-04T05:33:31;45.27;;;24.47;;
18280;SDS011;9266;51.132;17.062;2023-12-04T05:36:12;44.57;;;23.40;;
18280;SDS011;9266;51.132;17.062;2023-12-04T05:38:42;48.60;;;25.63;;
18280;SDS011;9266;51.132;17.062;2023-12-04T05:41:19;41.63;;;22.60;;
18280;SDS011;9266;51.132;17.062;2023-12-04T05:43:52;45.60;;;23.63;;
18280;SDS011;9266;51.132;17.062;2023-12-04T05:46:20;42.77;;;23.47;;
18280;SDS011;9266;51.132;17.062;2023-12-04T05:51:57;51.07;;;25.33;;
18280;SDS011;9266;51.132;17.062;2023-12-04T05:54:31;49.03;;;26.40;;
18280;SDS011;9266;51.132;17.062;2023-12-04T05:57:15;45.20;;;24.43;;
18280;SDS011;9266;51.132;17.062;2023-12-04T05:59:55;49.73;;;23.80;;
18280;SDS011;9266;51.132;17.062;2023-12-04T06:02:24;45.77;;;22.93;;
18280;SDS011;9266;51.132;17.062;2023-12-04T06:04:56;42.07;;;20.70;;
18280;SDS011;9266;51.132;17.062;2023-12-04T06:07:33;50.40;;;23.00;;
18280;SDS011;9266;51.132;17.062;2023-12-04T06:10:10;49.40;;;23.67;;
18280;SDS011;9266;51.132;17.062;2023-12-04T06:12:37;39.60;;;18.83;;
18280;SDS011;9266;51.132;17.062;2023-12-04T06:15:14;42.20;;;22.00;;
18280;SDS011;9266;51.132;17.062;2023-12-04T06:17:48;46.97;;;21.73;;
18280;SDS011;9266;51.132;17.062;2023-12-04T06:20:29;44.27;;;20.53;;
18280;SDS011;9266;51.132;17.062;2023-12-04T06:23:04;46.90;;;22.77;;
18280;SDS011;9266;51.132;17.062;2023-12-04T06:25:50;45.33;;;18.80;;
18280;SDS011;9266;51.132;17.062;2023-12-04T06:28:40;51.43;;;24.40;;
18280;SDS011;9266;51.132;17.062;2023-12-04T06:31:09;50.87;;;24.20;;
18280;SDS011;9266;51.132;17.062;2023-12-04T06:33:45;59.57;;;26.63;;
18280;SDS011;9266;51.132;17.062;2023-12-04T06:36:20;50.33;;;24.43;;
18280;SDS011;9266;51.132;17.062;2023-12-04T06:41:59;54.83;;;27.90;;
18280;SDS011;9266;51.132;17.062;2023-12-04T06:44:41;49.37;;;23.27;;
18280;SDS011;9266;51.132;17.062;2023-12-04T06:47:25;45.23;;;22.53;;
18280;SDS011;9266;51.132;17.062;2023-12-04T06:49:57;45.67;;;24.07;;
18280;SDS011;9266;51.132;17.062;2023-12-04T06:52:31;48.03;;;22.40;;
18280;SDS011;9266;51.132;17.062;2023-12-04T06:55:19;51.93;;;25.30;;
18280;SDS011;9266;51.132;17.062;2023-12-04T06:58:08;49.13;;;23.27;;
18280;SDS011;9266;51.132;17.062;2023-12-04T07:00:35;48.97;;;25.17;;
18280;SDS011;9266;51.132;17.062;2023-12-04T07:03:25;50.73;;;24.97;;
18280;SDS011;9266;51.132;17.062;2023-12-04T07:06:06;54.77;;;26.10;;
18280;SDS011;9266;51.132;17.062;2023-12-04T07:08:45;52.10;;;26.20;;
18280;SDS011;9266;51.132;17.062;2023-12-04T07:11:26;58.20;;;27.87;;
18280;SDS011;9266;51.132;17.062;2023-12-04T07:14:02;57.90;;;29.00;;
18280;SDS011;9266;51.132;17.062;2023-12-04T07:16:43;55.57;;;27.80;;
18280;SDS011;9266;51.132;17.062;2023-12-04T07:19:13;73.63;;;34.23;;
18280;SDS011;9266;51.132;17.062;2023-12-04T07:21:42;58.90;;;29.10;;
18280;SDS011;9266;51.132;17.062;2023-12-04T07:24:30;64.03;;;31.00;;
18280;SDS011;9266;51.132;17.062;2023-12-04T07:27:13;59.70;;;29.63;;
18280;SDS011;9266;51.132;17.062;2023-12-04T07:29:57;58.00;;;28.47;;
18280;SDS011;9266;51.132;17.062;2023-12-04T07:32:38;51.00;;;28.63;;
18280;SDS011;9266;51.132;17.062;2023-12-04T07:35:12;55.37;;;29.23;;
18280;SDS011;9266;51.132;17.062;2023-12-04T07:37:43;57.03;;;29.07;;
18280;SDS011;9266;51.132;17.062;2023-12-04T07:40:24;57.70;;;29.03;;
18280;SDS011;9266;51.132;17.062;2023-12-04T07:43:14;55.87;;;26.80;;
18280;SDS011;9266;51.132;17.062;2023-12-04T07:45:48;58.30;;;29.60;;
18280;SDS011;9266;51.132;17.062;2023-12-04T07:48:16;53.77;;;27.73;;
18280;SDS011;9266;51.132;17.062;2023-12-04T07:50:46;62.30;;;31.23;;
18280;SDS011;9266;51.132;17.062;2023-12-04T07:53:17;58.17;;;29.17;;
18280;SDS011;9266;51.132;17.062;2023-12-04T07:55:58;51.87;;;26.73;;
18280;SDS011;9266;51.132;17.062;2023-12-04T07:58:31;55.70;;;28.23;;
18280;SDS011;9266;51.132;17.062;2023-12-04T08:01:09;53.07;;;26.67;;
18280;SDS011;9266;51.132;17.062;2023-12-04T08:03:47;59.10;;;28.30;;
18280;SDS011;9266;51.132;17.062;2023-12-04T08:06:15;55.87;;;27.80;;
18280;SDS011;9266;51.132;17.062;2023-12-04T08:08:48;52.93;;;28.30;;
18280;SDS011;9266;51.132;17.062;2023-12-04T08:11:15;49.83;;;27.50;;
18280;SDS011;9266;51.132;17.062;2023-12-04T08:13:43;61.93;;;28.40;;
18280;SDS011;9266;51.132;17.062;2023-12-04T08:16:14;59.90;;;28.23;;
18280;SDS011;9266;51.132;17.062;2023-12-04T08:18:42;56.03;;;28.67;;
18280;SDS011;9266;51.132;17.062;2023-12-04T08:21:10;55.90;;;27.77;;
18280;SDS011;9266;51.132;17.062;2023-12-04T08:23:41;51.80;;;26.90;;
18280;SDS011;9266;51.132;17.062;2023-12-04T08:26:13;53.27;;;26.57;;
18280;SDS011;9266;51.132;17.062;2023-12-04T08:28:45;52.60;;;26.50;;
18280;SDS011;9266;51.132;17.062;2023-12-04T08:31:22;49.43;;;26.53;;
18280;SDS011;9266;51.132;17.062;2023-12-04T08:33:53;49.30;;;26.17;;
18280;SDS011;9266;51.132;17.062;2023-12-04T08:36:28;41.57;;;25.67;;
18280;SDS011;9266;51.132;17.062;2023-12-04T08:39:04;48.97;;;25.80;;
18280;SDS011;9266;51.132;17.062;2023-12-04T08:41:33;44.60;;;24.87;;
18280;SDS011;9266;51.132;17.062;2023-12-04T08:44:14;51.27;;;26.43;;
18280;SDS011;9266;51.132;17.062;2023-12-04T08:47:05;46.23;;;25.17;;
18280;SDS011;9266;51.132;17.062;2023-12-04T08:49:34;44.43;;;23.30;;
18280;SDS011;9266;51.132;17.062;2023-12-04T08:52:06;36.63;;;20.10;;
18280;SDS011;9266;51.132;17.062;2023-12-04T08:54:38;46.87;;;22.53;;
18280;SDS011;9266;51.132;17.062;2023-12-04T08:57:11;44.23;;;25.13;;
18280;SDS011;9266;51.132;17.062;2023-12-04T08:59:39;55.20;;;26.67;;
18280;SDS011;9266;51.132;17.062;2023-12-04T09:02:09;49.67;;;25.00;;
18280;SDS011;9266;51.132;17.062;2023-12-04T09:04:38;43.10;;;22.70;;
18280;SDS011;9266;51.132;17.062;2023-12-04T09:07:06;42.43;;;24.80;;
18280;SDS011;9266;51.132;17.062;2023-12-04T09:12:19;47.30;;;24.83;;
18280;SDS011;9266;51.132;17.062;2023-12-04T09:14:47;46.80;;;24.27;;
18280;SDS011;9266;51.132;17.062;2023-12-04T09:17:14;44.20;;;23.07;;
18280;SDS011;9266;51.132;17.062;2023-12-04T09:19:48;41.50;;;21.73;;
18280;SDS011;9266;51.132;17.062;2023-12-04T09:22:15;43.90;;;25.73;;
18280;SDS011;9266;51.132;17.062;2023-12-04T09:24:45;47.07;;;24.27;;
18280;SDS011;9266;51.132;17.062;2023-12-04T09:27:13;49.03;;;23.40;;
18280;SDS011;9266;51.132;17.062;2023-12-04T09:29:44;38.33;;;22.33;;
18280;SDS011;9266;51.132;17.062;2023-12-04T09:32:12;34.93;;;20.50;;
18280;SDS011;9266;51.132;17.062;2023-12-04T09:34:41;38.50;;;22.67;;
18280;SDS011;9266;51.132;17.062;2023-12-04T09:37:12;40.50;;;22.73;;
18280;SDS011;9266;51.132;17.062;2023-12-04T09:39:41;39.37;;;21.37;;
18280;SDS011;9266;51.132;17.062;2023-12-04T09:42:10;43.23;;;21.40;;
18280;SDS011;9266;51.132;17.062;2023-12-04T09:44:39;39.57;;;21.30;;
18280;SDS011;9266;51.132;17.062;2023-12-04T09:47:09;47.77;;;26.27;;
18280;SDS011;9266;51.132;17.062;2023-12-04T09:49:37;49.83;;;26.87;;
18280;SDS011;9266;51.132;17.062;2023-12-04T09:52:05;45.87;;;25.27;;
18280;SDS011;9266;51.132;17.062;2023-12-04T09:54:35;54.97;;;28.53;;
18280;SDS011;9266;51.132;17.062;2023-12-04T09:57:10;47.80;;;24.77;;
18280;SDS011;9266;51.132;17.062;2023-12-04T09:59:39;40.40;;;22.33;;
18280;SDS011;9266;51.132;17.062;2023-12-04T10:02:10;37.23;;;20.30;;
18280;SDS011;9266;51.132;17.062;2023-12-04T10:04:38;40.93;;;23.87;;
18280;SDS011;9266;51.132;17.062;2023-12-04T10:07:07;37.40;;;22.30;;
18280;SDS011;9266;51.132;17.062;2023-12-04T10:09:36;40.20;;;22.70;;
18280;SDS011;9266;51.132;17.062;2023-12-04T10:12:12;34.33;;;19.77;;
18280;SDS011;9266;51.132;17.062;2023-12-04T10:14:40;35.17;;;18.73;;
18280;SDS011;9266;51.132;17.062;2023-12-04T10:20:09;38.20;;;22.00;;
18280;SDS011;9266;51.132;17.062;2023-12-04T10:22:51;40.07;;;21.50;;
18280;SDS011;9266;51.132;17.062;2023-12-04T10:25:21;41.50;;;22.07;;
18280;SDS011;9266;51.132;17.062;2023-12-04T10:28:10;34.50;;;18.33;;
18280;SDS011;9266;51.132;17.062;2023-12-04T10:30:47;38.03;;;22.63;;
18280;SDS011;9266;51.132;17.062;2023-12-04T10:33:36;52.27;;;29.90;;
18280;SDS011;9266;51.132;17.062;2023-12-04T10:36:28;48.77;;;27.77;;
18280;SDS011;9266;51.132;17.062;2023-12-04T12:01:09;47.53;;;25.83;;
18280;SDS011;9266;51.132;17.062;2023-12-04T12:13:15;43.70;;;23.93;;
18280;SDS011;9266;51.132;17.062;2023-12-04T12:18:22;47.83;;;26.67;;
18280;SDS011;9266;51.132;17.062;2023-12-04T12:26:27;50.83;;;26.77;;
18280;SDS011;9266;51.132;17.062;2023-12-04T12:29:03;49.07;;;28.10;;
18280;SDS011;9266;51.132;17.062;2023-12-04T12:31:56;49.70;;;28.30;;
18280;SDS011;9266;51.132;17.062;2023-12-04T12:34:40;52.20;;;27.10;;
18280;SDS011;9266;51.132;17.062;2023-12-04T12:37:10;49.93;;;28.87;;
18280;SDS011;9266;51.132;17.062;2023-12-04T12:40:15;49.07;;;30.73;;
18280;SDS011;9266;51.132;17.062;2023-12-04T12:42:53;50.07;;;30.03;;
18280;SDS011;9266;51.132;17.062;2023-12-04T12:48:20;54.23;;;29.77;;
18280;SDS011;9266;51.132;17.062;2023-12-04T12:51:03;55.13;;;28.53;;
18280;SDS011;9266;51.132;17.062;2023-12-04T12:53:33;44.50;;;28.33;;
18280;SDS011;9266;51.132;17.062;2023-12-04T12:56:02;43.23;;;25.87;;
18280;SDS011;9266;51.132;17.062;2023-12-04T12:58:34;53.23;;;30.53;;
18280;SDS011;9266;51.132;17.062;2023-12-04T13:01:05;53.17;;;29.77;;
18280;SDS011;9266;51.132;17.062;2023-12-04T13:03:36;57.37;;;32.13;;
18280;SDS011;9266;51.132;17.062;2023-12-04T13:06:09;48.10;;;28.90;;
18280;SDS011;9266;51.132;17.062;2023-12-04T13:08:35;43.20;;;26.77;;
18280;SDS011;9266;51.132;17.062;2023-12-04T13:11:05;55.37;;;30.97;;
18280;SDS011;9266;51.132;17.062;2023-12-04T13:13:40;56.90;;;29.23;;
18280;SDS011;9266;51.132;17.062;2023-12-04T13:16:14;51.90;;;30.07;;
18280;SDS011;9266;51.132;17.062;2023-12-04T13:19:04;48.03;;;27.37;;
18280;SDS011;9266;51.132;17.062;2023-12-04T13:21:40;53.27;;;29.10;;
18280;SDS011;9266;51.132;17.062;2023-12-04T13:24:10;47.50;;;27.80;;
18280;SDS011;9266;51.132;17.062;2023-12-04T13:26:39;53.10;;;29.83;;
18280;SDS011;9266;51.132;17.062;2023-12-04T13:29:07;49.67;;;26.60;;
18280;SDS011;9266;51.132;17.062;2023-12-04T13:31:40;52.23;;;29.80;;
18280;SDS011;9266;51.132;17.062;2023-12-04T13:34:15;53.17;;;28.13;;
18280;SDS011;9266;51.132;17.062;2023-12-04T13:36:42;51.13;;;27.50;;
18280;SDS011;9266;51.132;17.062;2023-12-04T13:42:17;52.77;;;29.57;;
18280;SDS011;9266;51.132;17.062;2023-12-04T13:45:02;61.83;;;32.03;;
18280;SDS011;9266;51.132;17.062;2023-12-04T13:47:40;49.67;;;29.50;;
18280;SDS011;9266;51.132;17.062;2023-12-04T13:50:26;50.07;;;30.93;;
18280;SDS011;9266;51.132;17.062;2023-12-04T13:53:05;52.40;;;31.07;;
18280;SDS011;9266;51.132;17.062;2023-12-04T13:55:37;53.87;;;31.00;;
18280;SDS011;9266;51.132;17.062;2023-12-04T13:58:18;62.57;;;33.73;;
18280;SDS011;9266;51.132;17.062;2023-12-04T14:01:02;56.07;;;31.93;;
18280;SDS011;9266;51.132;17.062;2023-12-04T14:06:27;52.30;;;31.37;;
18280;SDS011;9266;51.132;17.062;2023-12-04T14:08:55;55.03;;;31.87;;
18280;SDS011;9266;51.132;17.062;2023-12-04T14:11:30;58.83;;;33.17;;
18280;SDS011;9266;51.132;17.062;2023-12-04T14:14:08;61.20;;;31.90;;
18280;SDS011;9266;51.132;17.062;2023-12-04T14:16:56;56.40;;;31.67;;
18280;SDS011;9266;51.132;17.062;2023-12-04T14:24:40;59.40;;;32.07;;
18280;SDS011;9266;51.132;17.062;2023-12-04T14:26:30;57.33;;;32.07;;
18280;SDS011;9266;51.132;17.062;2023-12-04T14:29:00;59.70;;;30.40;;
18280;SDS011;9266;51.132;17.062;2023-12-04T14:31:29;61.83;;;31.90;;
18280;SDS011;9266;51.132;17.062;2023-12-04T14:34:03;59.33;;;31.53;;
18280;SDS011;9266;51.132;17.062;2023-12-04T14:36:34;61.77;;;32.77;;
18280;SDS011;9266;51.132;17.062;2023-12-04T14:42:58;62.40;;;32.57;;
18280;SDS011;9266;51.132;17.062;2023-12-04T14:45:39;66.97;;;34.20;;
18280;SDS011;9266;51.132;17.062;2023-12-04T14:48:06;63.40;;;31.33;;
18280;SDS011;9266;51.132;17.062;2023-12-04T14:50:38;67.53;;;34.90;;
18280;SDS011;9266;51.132;17.062;2023-12-04T14:53:08;61.33;;;32.97;;
18280;SDS011;9266;51.132;17.062;2023-12-04T14:55:59;55.17;;;30.90;;
18280;SDS011;9266;51.132;17.062;2023-12-04T14:58:55;55.37;;;29.03;;
18280;SDS011;9266;51.132;17.062;2023-12-04T15:01:46;70.50;;;32.73;;
18280;SDS011;9266;51.132;17.062;2023-12-04T15:04:48;67.97;;;34.50;;
18280;SDS011;9266;51.132;17.062;2023-12-04T15:07:32;64.73;;;31.50;;
18280;SDS011;9266;51.132;17.062;2023-12-04T15:10:34;63.10;;;32.77;;
18280;SDS011;9266;51.132;17.062;2023-12-04T15:13:37;56.87;;;33.97;;
18280;SDS011;9266;51.132;17.062;2023-12-04T15:16:18;56.53;;;29.73;;
18280;SDS011;9266;51.132;17.062;2023-12-04T15:19:00;68.77;;;35.80;;
18280;SDS011;9266;51.132;17.062;2023-12-04T15:21:41;69.30;;;34.83;;
18280;SDS011;9266;51.132;17.062;2023-12-04T15:24:28;62.70;;;35.73;;
18280;SDS011;9266;51.132;17.062;2023-12-04T15:27:19;57.97;;;33.27;;
18280;SDS011;9266;51.132;17.062;2023-12-04T15:30:00;66.10;;;34.80;;
18280;SDS011;9266;51.132;17.062;2023-12-04T15:33:09;64.40;;;35.70;;
18280;SDS011;9266;51.132;17.062;2023-12-04T15:35:59;56.23;;;30.53;;
18280;SDS011;9266;51.132;17.062;2023-12-04T15:38:29;60.27;;;33.37;;
18280;SDS011;9266;51.132;17.062;2023-12-04T15:40:57;59.63;;;33.73;;
18280;SDS011;9266;51.132;17.062;2023-12-04T15:43:50;59.50;;;32.20;;
18280;SDS011;9266;51.132;17.062;2023-12-04T15:46:50;51.00;;;29.27;;
18280;SDS011;9266;51.132;17.062;2023-12-04T15:49:29;59.93;;;32.07;;
18280;SDS011;9266;51.132;17.062;2023-12-04T15:52:24;63.10;;;33.13;;
18280;SDS011;9266;51.132;17.062;2023-12-04T15:55:14;57.63;;;31.33;;
18280;SDS011;9266;51.132;17.062;2023-12-04T15:57:50;57.53;;;31.87;;
18280;SDS011;9266;51.132;17.062;2023-12-04T16:01:15;63.63;;;32.77;;
18280;SDS011;9266;51.132;17.062;2023-12-04T16:04:04;61.70;;;33.60;;
18280;SDS011;9266;51.132;17.062;2023-12-04T16:06:57;62.97;;;33.77;;
18280;SDS011;9266;51.132;17.062;2023-12-04T16:12:57;59.87;;;31.80;;
18280;SDS011;9266;51.132;17.062;2023-12-04T16:16:03;57.93;;;31.60;;
18280;SDS011;9266;51.132;17.062;2023-12-04T16:22:31;65.93;;;34.33;;
18280;SDS011;9266;51.132;17.062;2023-12-04T16:25:53;59.63;;;32.20;;
18280;SDS011;9266;51.132;17.062;2023-12-04T16:28:44;64.47;;;33.77;;
18280;SDS011;9266;51.132;17.062;2023-12-04T16:31:45;59.90;;;34.37;;
18280;SDS011;9266;51.132;17.062;2023-12-04T16:37:47;61.57;;;33.40;;
18280;SDS011;9266;51.132;17.062;2023-12-04T16:40:30;64.57;;;35.37;;
18280;SDS011;9266;51.132;17.062;2023-12-04T16:43:12;55.53;;;29.97;;
18280;SDS011;9266;51.132;17.062;2023-12-04T16:46:09;54.67;;;29.80;;
18280;SDS011;9266;51.132;17.062;2023-12-04T16:48:42;60.63;;;30.37;;
18280;SDS011;9266;51.132;17.062;2023-12-04T16:51:12;53.93;;;30.00;;
18280;SDS011;9266;51.132;17.062;2023-12-04T16:54:04;55.23;;;30.50;;
18280;SDS011;9266;51.132;17.062;2023-12-04T16:56:50;55.83;;;27.77;;
18280;SDS011;9266;51.132;17.062;2023-12-04T16:59:39;52.87;;;28.67;;
18280;SDS011;9266;51.132;17.062;2023-12-04T17:02:51;49.30;;;29.27;;
18280;SDS011;9266;51.132;17.062;2023-12-04T17:05:42;54.57;;;30.93;;
18280;SDS011;9266;51.132;17.062;2023-12-04T17:08:14;56.77;;;32.60;;
18280;SDS011;9266;51.132;17.062;2023-12-04T17:10:53;55.77;;;30.07;;
18280;SDS011;9266;51.132;17.062;2023-12-04T17:13:52;54.60;;;30.50;;
18280;SDS011;9266;51.132;17.062;2023-12-04T17:16:30;50.40;;;30.73;;
18280;SDS011;9266;51.132;17.062;2023-12-04T17:19:00;56.30;;;30.57;;
18280;SDS011;9266;51.132;17.062;2023-12-04T17:21:38;52.07;;;30.80;;
18280;SDS011;9266;51.132;17.062;2023-12-04T17:24:13;53.30;;;28.97;;
18280;SDS011;9266;51.132;17.062;2023-12-04T17:26:45;52.27;;;30.17;;
18280;SDS011;9266;51.132;17.062;2023-12-04T17:29:21;51.60;;;29.63;;
18280;SDS011;9266;51.132;17.062;2023-12-04T17:32:14;51.20;;;30.50;;